Time;durP1;ratioP1;P1;durP2;ratioP2;P2;SDS_P1;SDS_P2;PMS_P1;PMS_P2;Temp;Humidity;BMP_temperature;BMP_pressure;BME280_temperature;BME280_humidity;BME280_pressure;Samples;Min_cycle;Max_cycle;Signal;HPM_P1;HPM_P2
2021/01/04 00:01:14;;;;;;;9.70;8.70;;;4.30;63.00;;;;;;5015157;28;20418;-72
2021/01/04 00:04:03;;;;;;;9.30;8.40;;;4.30;61.40;;;;;;5015863;28;20431;-70
2021/01/04 00:06:58;;;;;;;10.02;9.02;;;4.30;63.40;;;;;;5015083;28;20885;-71
2021/01/04 00:09:50;;;;;;;10.60;8.50;;;4.20;64.80;;;;;;5015556;28;20403;-72
2021/01/04 00:12:40;;;;;;;9.60;8.70;;;4.20;63.00;;;;;;5014847;28;20447;-71
2021/01/04 00:15:18;;;;;;;9.07;8.18;;;4.10;63.80;;;;;;5008531;28;20419;-70
2021/01/04 00:17:56;;;;;;;8.43;7.63;;;4.20;62.50;;;;;;5014886;28;20450;-72
2021/01/04 00:20:41;;;;;;;8.70;7.80;;;4.20;61.90;;;;;;5014571;28;20469;-70
2021/01/04 00:23:25;;;;;;;8.10;7.40;;;4.20;61.60;;;;;;5015309;28;20389;-70
2021/01/04 00:26:04;;;;;;;8.23;7.50;;;4.20;61.90;;;;;;5013431;28;20527;-72
2021/01/04 00:28:33;;;;;;;8.13;7.43;;;4.20;62.50;;;;;;5002840;28;20482;-72
2021/01/04 00:31:01;;;;;;;9.02;7.82;;;4.20;62.50;;;;;;4995140;28;20389;-72
2021/01/04 00:33:33;;;;;;;9.10;8.20;;;4.20;63.30;;;;;;4996799;28;20382;-75
2021/01/04 00:36:05;;;;;;;8.43;7.63;;;4.10;63.60;;;;;;5012376;28;20401;-75
2021/01/04 00:38:46;;;;;;;9.15;7.75;;;4.10;63.00;;;;;;4995570;28;20398;-75
2021/01/04 00:41:20;;;;;;;8.90;8.00;;;4.10;62.00;;;;;;5011082;28;20744;-73
2021/01/04 00:43:52;;;;;;;8.60;7.70;;;4.00;63.30;;;;;;4994858;28;20580;-73
2021/01/04 00:46:33;;;;;;;8.15;7.35;;;4.00;64.70;;;;;;4995644;28;20401;-72
2021/01/04 00:48:59;;;;;;;8.20;7.40;;;4.00;63.20;;;;;;4995934;28;20379;-73
2021/01/04 00:52:06;;;;;;;8.30;7.50;;;4.10;64.20;;;;;;4994532;28;20398;-74
2021/01/04 00:54:37;;;;;;;8.00;7.20;;;4.10;63.00;;;;;;4994238;28;20421;-74
2021/01/04 00:57:21;;;;;;;8.57;7.45;;;4.00;62.60;;;;;;4994699;28;20448;-73
2021/01/04 01:00:28;;;;;;;7.88;7.07;;;4.00;62.90;;;;;;4994106;28;20387;-74
2021/01/04 01:03:12;;;;;;;7.93;7.22;;;4.00;64.40;;;;;;4994232;28;20390;-72
2021/01/04 01:05:57;;;;;;;8.32;7.53;;;4.00;64.10;;;;;;4994399;28;20417;-73
2021/01/04 01:08:33;;;;;;;8.10;7.30;;;4.00;65.60;;;;;;5009787;28;20475;-72
2021/01/04 01:11:01;;;;;;;7.95;7.20;;;4.00;64.60;;;;;;5014529;28;20381;-72
2021/01/04 01:13:54;;;;;;;8.65;7.80;;;4.00;64.90;;;;;;5013200;28;20408;-72
2021/01/04 01:16:26;;;;;;;8.48;7.68;;;4.10;64.20;;;;;;5012532;28;20400;-71
2021/01/04 01:19:19;;;;;;;8.98;8.07;;;4.10;64.40;;;;;;5014064;28;20423;-73
2021/01/04 01:21:46;;;;;;;8.88;7.97;;;4.00;65.00;;;;;;5012743;28;20373;-74
2021/01/04 01:24:13;;;;;;;8.65;7.75;;;4.00;64.30;;;;;;5012324;28;20440;-73
2021/01/04 01:27:33;;;;;;;8.68;7.88;;;4.10;63.90;;;;;;5012580;28;20782;-73
2021/01/04 01:30:32;;;;;;;8.95;7.80;;;4.00;63.60;;;;;;4952605;28;20417;-73
2021/01/04 01:36:35;;;;;;;8.88;7.97;;;4.00;63.40;;;;;;4994594;28;20405;-73
2021/01/04 01:39:27;;;;;;;8.90;8.00;;;4.00;64.70;;;;;;4993178;28;20859;-74
2021/01/04 01:41:53;;;;;;;8.57;7.68;;;4.00;64.30;;;;;;4993654;28;20398;-73
2021/01/04 01:44:30;;;;;;;8.20;7.40;;;4.00;64.90;;;;;;4993195;28;20470;-74
2021/01/04 01:47:03;;;;;;;9.02;8.13;;;4.00;64.50;;;;;;4993829;28;20398;-72
2021/01/04 01:49:52;;;;;;;8.82;7.93;;;4.00;64.10;;;;;;4992634;28;20390;-73
2021/01/04 01:52:33;;;;;;;9.80;7.75;;;4.00;64.40;;;;;;4991974;28;20445;-74
2021/01/04 01:55:20;;;;;;;8.40;7.60;;;4.00;64.40;;;;;;4992792;28;20816;-74
2021/01/04 01:58:13;;;;;;;9.90;7.60;;;4.00;63.70;;;;;;4991722;28;20390;-73
2021/01/04 02:00:49;;;;;;;8.50;7.55;;;3.90;64.00;;;;;;4992000;28;20390;-74
2021/01/04 02:03:46;;;;;;;8.07;7.28;;;4.00;62.90;;;;;;4992096;28;20755;-73
2021/01/04 02:06:37;;;;;;;8.55;7.70;;;3.90;61.90;;;;;;4992287;28;20390;-73
2021/01/04 02:09:13;;;;;;;8.00;7.20;;;4.00;63.10;;;;;;4992423;28;20389;-73
2021/01/04 02:11:59;;;;;;;8.23;7.40;;;4.00;62.00;;;;;;4994407;28;20408;-73
2021/01/04 02:14:37;;;;;;;7.53;6.90;;;3.90;62.00;;;;;;5015018;28;20416;-73
2021/01/04 02:17:23;;;;;;;8.50;7.53;;;4.00;61.80;;;;;;5016001;28;20435;-73
2021/01/04 02:20:02;;;;;;;8.00;7.20;;;3.90;61.80;;;;;;5014617;28;20436;-74
2021/01/04 02:22:43;;;;;;;8.50;7.60;;;3.90;62.20;;;;;;5015744;28;20451;-73
2021/01/04 02:25:09;;;;;;;7.70;7.00;;;3.90;63.30;;;;;;5016252;28;20415;-72
2021/01/04 02:27:41;;;;;;;8.30;7.40;;;3.90;63.20;;;;;;5009993;28;20875;-74
2021/01/04 02:30:07;;;;;;;8.73;7.82;;;4.00;61.90;;;;;;4994936;28;20399;-74
2021/01/04 02:32:33;;;;;;;8.35;7.55;;;4.00;62.20;;;;;;4997288;28;20390;-73
2021/01/04 02:34:59;;;;;;;9.63;7.90;;;3.90;61.10;;;;;;4997519;28;20410;-73
2021/01/04 02:37:25;;;;;;;8.70;7.80;;;3.90;62.50;;;;;;4998194;28;20749;-73
2021/01/04 02:40:00;;;;;;;10.93;7.47;;;3.90;62.90;;;;;;4997137;28;20445;-72
2021/01/04 02:42:34;;;;;;;8.85;7.90;;;3.80;61.90;;;;;;4993890;28;20747;-72
2021/01/04 02:45:04;;;;;;;7.93;7.13;;;3.80;62.30;;;;;;4993759;28;20422;-73
2021/01/04 02:47:57;;;;;;;8.68;7.45;;;3.80;63.80;;;;;;4993843;28;20748;-74
2021/01/04 02:50:32;;;;;;;8.07;7.25;;;3.90;62.00;;;;;;4993205;28;20402;-74
2021/01/04 02:53:22;;;;;;;8.60;7.70;;;3.90;62.40;;;;;;4992357;28;20390;-73
2021/01/04 02:56:14;;;;;;;8.00;7.20;;;3.90;62.40;;;;;;4993708;28;20390;-72
2021/01/04 02:59:03;;;;;;;8.63;7.75;;;3.90;61.90;;;;;;4993430;28;20441;-73
2021/01/04 03:01:38;;;;;;;8.35;7.53;;;3.80;62.80;;;;;;4993664;28;20398;-72
2021/01/04 03:04:06;;;;;;;8.80;7.90;;;3.80;62.60;;;;;;4993498;28;20761;-73
2021/01/04 03:07:06;;;;;;;8.57;7.70;;;3.80;62.40;;;;;;4993916;28;20444;-71
2021/01/04 03:09:33;;;;;;;8.40;7.60;;;3.80;62.60;;;;;;5012671;28;20391;-73
2021/01/04 03:12:03;;;;;;;9.35;8.00;;;3.80;62.10;;;;;;5012900;28;20439;-73
2021/01/04 03:14:50;;;;;;;8.80;7.90;;;3.80;62.80;;;;;;5013134;28;20803;-72
2021/01/04 03:17:44;;;;;;;10.25;8.30;;;3.80;63.00;;;;;;5012921;28;20385;-73
2021/01/04 03:20:14;;;;;;;8.88;8.00;;;3.80;62.50;;;;;;5012660;28;20595;-73
2021/01/04 03:22:40;;;;;;;9.45;8.20;;;3.80;63.60;;;;;;5012565;28;20395;-73
2021/01/04 03:25:35;;;;;;;9.43;8.45;;;3.70;63.90;;;;;;5012319;28;20408;-73
2021/01/04 03:28:03;;;;;;;9.20;8.30;;;3.80;62.90;;;;;;5003059;28;20422;-73
2021/01/04 03:30:29;;;;;;;10.15;8.00;;;3.90;62.70;;;;;;4992718;28;20476;-73
2021/01/04 03:32:56;;;;;;;9.40;8.40;;;3.90;61.90;;;;;;4992877;28;20415;-73
2021/01/04 03:35:22;;;;;;;8.88;7.97;;;4.00;61.50;;;;;;4992476;28;20396;-74
2021/01/04 03:37:47;;;;;;;9.30;8.40;;;3.90;62.20;;;;;;4995184;28;20398;-73
2021/01/04 03:40:14;;;;;;;8.90;8.00;;;4.00;61.40;;;;;;4995609;28;20766;-72
2021/01/04 03:42:40;;;;;;;8.85;7.95;;;4.00;60.80;;;;;;4995315;28;20394;-72
2021/01/04 03:45:07;;;;;;;8.10;7.30;;;4.00;60.80;;;;;;4995233;28;20411;-72
2021/01/04 03:47:32;;;;;;;9.57;8.35;;;4.00;59.40;;;;;;4994802;28;20394;-73
2021/01/04 03:49:58;;;;;;;10.13;8.15;;;4.00;58.70;;;;;;4992368;28;20409;-73
2021/01/04 03:52:24;;;;;;;9.40;8.17;;;4.00;58.60;;;;;;4992675;28;20386;-74
2021/01/04 03:54:49;;;;;;;9.00;7.97;;;3.90;59.80;;;;;;4992878;28;20393;-72
2021/01/04 03:57:15;;;;;;;8.70;7.80;;;4.00;60.60;;;;;;4993186;28;20398;-72
2021/01/04 03:59:42;;;;;;;8.90;8.00;;;4.10;58.10;;;;;;4992494;28;20448;-74
2021/01/04 04:02:07;;;;;;;8.07;7.38;;;4.00;58.70;;;;;;4992617;28;20430;-73
2021/01/04 04:04:33;;;;;;;8.70;7.90;;;4.00;60.30;;;;;;4992323;28;20908;-73
2021/01/04 04:06:58;;;;;;;8.43;7.63;;;4.10;59.60;;;;;;4996331;28;20387;-73
2021/01/04 04:09:24;;;;;;;7.78;7.07;;;4.00;58.80;;;;;;5011908;28;20385;-73
2021/01/04 04:11:50;;;;;;;8.30;7.50;;;4.00;58.90;;;;;;5012115;28;20388;-73
2021/01/04 04:14:17;;;;;;;7.70;7.00;;;4.00;59.00;;;;;;5012121;28;20451;-74
2021/01/04 04:16:42;;;;;;;7.97;7.18;;;4.00;58.60;;;;;;5011924;28;20405;-74
2021/01/04 04:19:09;;;;;;;7.43;6.70;;;4.00;58.70;;;;;;5011306;28;20467;-73
2021/01/04 04:21:35;;;;;;;6.93;6.32;;;4.00;59.10;;;;;;5011624;28;20747;-73
2021/01/04 04:24:00;;;;;;;7.70;7.00;;;4.00;59.20;;;;;;5011621;28;20451;-73
2021/01/04 04:26:29;;;;;;;7.18;6.57;;;4.00;59.30;;;;;;5010386;28;20397;-75
2021/01/04 04:28:55;;;;;;;7.75;6.95;;;3.90;59.50;;;;;;4994665;28;20386;-74
2021/01/04 04:31:21;;;;;;;8.02;7.32;;;3.90;61.10;;;;;;4991963;28;20386;-73
2021/01/04 04:33:47;;;;;;;8.77;7.03;;;3.90;60.60;;;;;;4992086;28;20413;-73
2021/01/04 04:36:22;;;;;;;8.00;7.30;;;3.90;59.90;;;;;;4990898;28;20425;-74
2021/01/04 04:38:48;;;;;;;7.40;6.70;;;4.00;59.00;;;;;;4991713;28;20379;-74
2021/01/04 04:41:25;;;;;;;7.70;7.00;;;3.90;59.20;;;;;;4991688;28;20408;-73
2021/01/04 04:43:54;;;;;;;8.50;7.60;;;3.90;60.00;;;;;;4992011;28;20761;-73
2021/01/04 04:46:45;;;;;;;7.80;7.10;;;3.90;59.70;;;;;;4991542;28;20394;-74
2021/01/04 04:49:31;;;;;;;8.60;7.60;;;3.80;61.80;;;;;;4991305;28;20391;-73
2021/01/04 04:52:07;;;;;;;8.55;7.75;;;3.80;61.90;;;;;;4991721;28;20946;-73
2021/01/04 04:54:52;;;;;;;9.88;8.63;;;3.80;60.30;;;;;;4993327;28;20872;-73
2021/01/04 04:57:41;;;;;;;9.68;8.70;;;3.70;62.40;;;;;;4997061;28;20387;-73
2021/01/04 05:00:29;;;;;;;8.73;7.88;;;3.80;62.30;;;;;;4996414;28;20429;-73
2021/01/04 05:03:13;;;;;;;9.68;8.25;;;3.80;61.60;;;;;;4997474;28;20482;-73
2021/01/04 05:05:59;;;;;;;9.03;8.13;;;3.80;62.20;;;;;;4997571;28;20461;-73
2021/01/04 05:09:06;;;;;;;9.70;8.70;;;3.80;62.20;;;;;;5011715;28;20385;-73
2021/01/04 05:11:36;;;;;;;9.40;8.25;;;3.80;62.50;;;;;;4999968;28;20392;-73
2021/01/04 05:14:05;;;;;;;13.05;9.57;;;3.70;65.30;;;;;;5014701;28;20385;-73
2021/01/04 05:16:58;;;;;;;10.02;9.02;;;3.70;65.00;;;;;;5016214;28;20415;-74
2021/01/04 05:20:01;;;;;;;9.85;8.85;;;3.70;64.20;;;;;;5016125;28;20487;-74
2021/01/04 05:22:51;;;;;;;11.70;9.20;;;3.70;65.50;;;;;;5016953;28;20878;-74
2021/01/04 05:25:22;;;;;;;10.00;9.00;;;3.70;66.40;;;;;;5016398;28;20778;-73
2021/01/04 05:28:00;;;;;;;10.77;9.27;;;3.70;65.10;;;;;;5008388;28;20386;-73
2021/01/04 05:30:26;;;;;;;11.50;9.70;;;3.70;65.60;;;;;;4995084;28;20382;-72
2021/01/04 05:33:14;;;;;;;10.63;9.50;;;3.70;65.30;;;;;;4994990;28;20391;-72
2021/01/04 05:35:42;;;;;;;10.73;9.63;;;3.70;66.70;;;;;;4995675;28;20391;-72
2021/01/04 05:38:28;;;;;;;11.75;9.80;;;3.70;67.50;;;;;;4996487;28;20387;-72
2021/01/04 05:41:03;;;;;;;11.00;9.68;;;3.70;67.30;;;;;;4996741;28;20465;-72
2021/01/04 05:43:58;;;;;;;13.43;10.43;;;3.70;65.90;;;;;;4996564;28;20387;-72
2021/01/04 05:46:35;;;;;;;9.63;8.63;;;3.70;66.00;;;;;;4993275;28;20390;-72
2021/01/04 05:49:06;;;;;;;11.98;10.35;;;3.80;62.90;;;;;;4999810;28;20387;-72
2021/01/04 05:51:39;;;;;;;10.35;9.32;;;3.80;64.50;;;;;;5005965;28;20772;-74
2021/01/04 05:54:05;;;;;;;10.23;9.23;;;3.80;65.50;;;;;;5000284;28;20452;-77
2021/01/04 05:56:31;;;;;;;10.93;9.50;;;3.80;64.70;;;;;;4999670;28;20389;-73
2021/01/04 05:59:05;;;;;;;9.75;8.75;;;4.00;63.60;;;;;;4995512;28;20386;-71
2021/01/04 06:01:31;;;;;;;12.98;9.90;;;3.90;63.60;;;;;;4997239;28;20382;-71
2021/01/04 06:04:00;;;;;;;9.97;8.97;;;4.00;64.20;;;;;;4997279;28;20409;-71
2021/01/04 06:06:56;;;;;;;9.88;8.68;;;4.10;60.30;;;;;;4995503;28;20480;-71
2021/01/04 06:09:23;;;;;;;10.60;9.45;;;4.10;61.10;;;;;;4989946;28;20398;-71
2021/01/04 06:11:56;;;;;;;12.32;10.25;;;4.10;60.50;;;;;;5002823;28;20403;-73
2021/01/04 06:14:26;;;;;;;10.25;9.25;;;4.10;60.80;;;;;;5021017;28;20400;-73
2021/01/04 06:17:03;;;;;;;11.48;9.27;;;4.10;60.80;;;;;;5018387;28;20789;-71
2021/01/04 06:19:32;;;;;;;11.35;9.90;;;4.20;59.60;;;;;;5018945;28;20423;-72
2021/01/04 06:22:06;;;;;;;10.68;9.57;;;4.00;59.80;;;;;;5018359;28;20473;-72
2021/01/04 06:24:35;;;;;;;11.30;10.10;;;3.90;61.70;;;;;;5016688;28;20913;-72
2021/01/04 06:27:13;;;;;;;11.60;10.18;;;3.90;63.90;;;;;;5015108;28;20904;-72
2021/01/04 06:29:44;;;;;;;10.50;9.40;;;4.00;61.70;;;;;;4993758;28;20383;-72
2021/01/04 06:32:32;;;;;;;12.23;10.05;;;4.20;57.70;;;;;;4993982;28;20436;-72
2021/01/04 06:35:03;;;;;;;11.07;9.87;;;4.20;58.70;;;;;;4993891;28;20394;-73
2021/01/04 06:37:32;;;;;;;11.80;9.10;;;4.20;59.10;;;;;;4993885;28;20417;-71
2021/01/04 06:40:03;;;;;;;11.55;9.98;;;4.20;57.30;;;;;;4993786;28;20398;-73
2021/01/04 06:42:38;;;;;;;11.10;9.90;;;4.20;58.70;;;;;;4994259;28;20397;-72
2021/01/04 06:45:18;;;;;;;11.80;10.10;;;4.20;58.60;;;;;;4994006;28;20549;-72
2021/01/04 06:48:15;;;;;;;13.57;9.70;;;4.10;60.30;;;;;;4993297;28;20394;-72
2021/01/04 06:51:18;;;;;;;12.63;9.48;;;4.20;58.10;;;;;;4993401;28;20395;-72
2021/01/04 06:54:07;;;;;;;10.75;9.65;;;4.20;58.20;;;;;;4993782;28;20414;-72
2021/01/04 06:56:50;;;;;;;12.13;10.40;;;4.20;58.40;;;;;;4993575;28;20848;-72
2021/01/04 06:59:50;;;;;;;11.93;9.98;;;4.20;60.50;;;;;;4990587;28;20831;-73
2021/01/04 07:02:42;;;;;;;13.07;9.85;;;4.30;58.00;;;;;;4992825;28;20439;-72
2021/01/04 07:05:16;;;;;;;14.20;10.27;;;4.30;58.60;;;;;;4962524;28;20442;-72
2021/01/04 07:08:05;;;;;;;12.98;10.75;;;4.20;58.60;;;;;;4993193;28;20401;-73
2021/01/04 07:10:54;;;;;;;13.93;10.60;;;4.20;59.70;;;;;;4991708;28;20402;-71
2021/01/04 07:13:57;;;;;;;11.55;10.27;;;4.20;59.60;;;;;;5009216;28;20463;-72
2021/01/04 07:16:56;;;;;;;12.57;10.32;;;4.20;59.00;;;;;;5012662;28;20385;-71
2021/01/04 07:19:59;;;;;;;13.73;10.65;;;4.20;58.20;;;;;;4984261;28;20423;-71
2021/01/04 07:22:41;;;;;;;17.25;10.75;;;4.20;59.50;;;;;;5013187;28;20380;-75
2021/01/04 07:25:07;;;;;;;14.80;10.30;;;4.10;59.60;;;;;;5012812;28;20404;-73
2021/01/04 07:27:47;;;;;;;13.00;9.87;;;4.10;60.60;;;;;;5006167;28;20432;-74
2021/01/04 07:30:51;;;;;;;13.85;10.35;;;4.10;59.80;;;;;;4992950;28;20382;-73
2021/01/04 07:33:34;;;;;;;12.00;9.82;;;4.10;59.70;;;;;;4980360;28;20763;-73
2021/01/04 07:36:20;;;;;;;12.25;9.60;;;4.20;58.70;;;;;;5012796;28;20400;-73
2021/01/04 07:39:04;;;;;;;11.48;9.60;;;4.10;60.60;;;;;;5012474;28;20397;-73
2021/01/04 07:41:48;;;;;;;11.30;9.18;;;4.10;58.80;;;;;;5011584;28;20485;-72
2021/01/04 07:44:29;;;;;;;12.00;9.45;;;4.10;59.60;;;;;;5011807;28;20504;-73
2021/01/04 07:47:24;;;;;;;11.80;9.95;;;4.10;58.70;;;;;;5010853;28;20882;-74
2021/01/04 07:50:12;;;;;;;13.93;9.88;;;4.10;60.00;;;;;;5011921;28;20405;-72
2021/01/04 07:52:56;;;;;;;11.60;9.20;;;4.20;59.80;;;;;;5011942;28;20452;-73
2021/01/04 07:55:59;;;;;;;11.20;9.75;;;4.20;59.00;;;;;;5012040;28;20409;-74
2021/01/04 07:58:55;;;;;;;13.27;9.52;;;4.10;60.30;;;;;;5011882;28;20401;-74
2021/01/04 08:01:58;;;;;;;11.85;9.70;;;4.20;58.30;;;;;;4992443;28;20899;-74
2021/01/04 08:04:24;;;;;;;11.35;9.80;;;4.30;57.60;;;;;;5011561;28;20412;-74
2021/01/04 08:07:15;;;;;;;12.20;9.10;;;4.30;57.00;;;;;;5011777;28;20423;-73
2021/01/04 08:10:07;;;;;;;12.00;10.20;;;4.30;58.20;;;;;;4984606;28;20396;-73
2021/01/04 08:13:01;;;;;;;13.63;10.80;;;4.20;58.40;;;;;;5009468;28;20412;-72
2021/01/04 08:15:44;;;;;;;13.93;10.88;;;4.40;57.90;;;;;;5011845;28;20389;-72
2021/01/04 08:18:13;;;;;;;12.63;10.32;;;4.30;59.80;;;;;;5000874;28;20392;-71
2021/01/04 08:20:48;;;;;;;13.00;10.20;;;4.20;59.90;;;;;;5016972;28;20435;-74
2021/01/04 08:24:03;;;;;;;16.42;10.30;;;4.30;59.20;;;;;;5017232;28;20831;-72
2021/01/04 08:27:03;;;;;;;13.60;10.10;;;4.30;56.30;;;;;;4971830;28;20467;-71
2021/01/04 08:29:37;;;;;;;15.02;10.80;;;4.30;57.10;;;;;;5015401;28;20388;-73
2021/01/04 08:32:15;;;;;;;12.40;11.10;;;4.20;57.10;;;;;;5015140;28;20463;-72
2021/01/04 08:34:43;;;;;;;14.27;11.30;;;4.20;58.70;;;;;;5014727;28;20770;-72
2021/01/04 08:37:11;;;;;;;12.60;9.82;;;4.20;58.60;;;;;;5016547;28;20374;-72
2021/01/04 08:39:45;;;;;;;13.32;9.75;;;4.30;57.00;;;;;;5015543;28;20396;-74
2021/01/04 08:42:10;;;;;;;15.70;10.98;;;4.20;57.80;;;;;;5014154;28;20396;-73
2021/01/04 08:44:37;;;;;;;12.18;10.43;;;4.20;58.60;;;;;;5015018;28;20412;-73
2021/01/04 08:47:16;;;;;;;15.30;10.57;;;4.20;57.50;;;;;;5014916;28;20399;-73
2021/01/04 08:49:45;;;;;;;12.93;10.05;;;4.20;57.70;;;;;;5015930;28;20401;-73
2021/01/04 08:52:21;;;;;;;12.77;10.20;;;4.20;58.50;;;;;;5015542;28;20411;-72
2021/01/04 08:54:57;;;;;;;13.07;10.95;;;4.30;59.00;;;;;;5015448;28;20416;-72
2021/01/04 08:57:38;;;;;;;11.90;10.38;;;4.20;58.70;;;;;;5015318;28;20400;-72
2021/01/04 09:00:15;;;;;;;13.40;9.90;;;4.20;57.30;;;;;;5015149;28;20384;-73
2021/01/04 09:02:42;;;;;;;14.32;10.70;;;4.30;57.00;;;;;;5015773;28;20467;-72
2021/01/04 09:05:11;;;;;;;13.60;10.98;;;4.20;59.30;;;;;;5014545;28;20413;-72
2021/01/04 09:07:52;;;;;;;12.40;10.25;;;4.20;59.40;;;;;;5014579;28;20408;-72
2021/01/04 09:10:25;;;;;;;11.60;10.10;;;4.20;57.40;;;;;;5013678;28;20906;-72
2021/01/04 09:12:55;;;;;;;11.80;10.20;;;4.20;57.10;;;;;;5010749;28;20722;-71
2021/01/04 09:15:20;;;;;;;14.30;10.55;;;4.20;56.80;;;;;;5010464;28;20411;-72
2021/01/04 09:18:01;;;;;;;13.80;11.10;;;4.30;56.70;;;;;;5010518;28;20400;-73
2021/01/04 09:20:27;;;;;;;14.23;11.63;;;4.20;57.50;;;;;;5010781;28;20408;-73
2021/01/04 09:23:04;;;;;;;11.52;9.88;;;4.30;57.10;;;;;;5010090;28;20392;-74
2021/01/04 09:25:47;;;;;;;11.50;10.07;;;4.30;57.30;;;;;;5010111;28;20748;-73
2021/01/04 09:28:15;;;;;;;15.68;9.70;;;4.40;57.40;;;;;;5010523;28;20384;-73
2021/01/04 09:30:41;;;;;;;13.63;10.00;;;4.40;55.90;;;;;;5010109;28;20944;-74
2021/01/04 09:33:25;;;;;;;11.00;9.80;;;4.40;55.80;;;;;;5009914;28;20412;-72
2021/01/04 09:36:04;;;;;;;11.70;10.50;;;4.30;57.90;;;;;;5003260;28;20385;-74
2021/01/04 09:38:29;;;;;;;13.07;9.88;;;4.40;57.50;;;;;;4996890;28;20404;-71
2021/01/04 09:40:59;;;;;;;13.25;10.52;;;4.40;57.20;;;;;;5010438;28;20396;-73
2021/01/04 09:43:27;;;;;;;11.52;9.80;;;4.40;56.60;;;;;;4990938;28;20522;-72
2021/01/04 09:46:06;;;;;;;11.30;9.70;;;4.50;55.30;;;;;;5007489;28;20416;-73
2021/01/04 09:48:37;;;;;;;19.70;10.10;;;4.50;55.20;;;;;;4990817;28;20398;-73
2021/01/04 09:51:05;;;;;;;13.55;10.68;;;4.40;55.80;;;;;;5007914;28;20408;-73
2021/01/04 09:53:39;;;;;;;12.23;10.00;;;4.40;57.20;;;;;;5010204;28;20750;-73
2021/01/04 09:56:13;;;;;;;14.82;10.57;;;4.50;56.20;;;;;;5009927;28;20405;-73
2021/01/04 09:58:40;;;;;;;10.57;9.35;;;4.50;56.30;;;;;;5008404;28;20408;-74
2021/01/04 10:01:16;;;;;;;12.02;10.60;;;4.40;56.20;;;;;;5010166;28;20388;-73
2021/01/04 10:03:53;;;;;;;14.82;10.13;;;4.40;57.50;;;;;;5009715;28;20461;-73
2021/01/04 10:06:20;;;;;;;12.82;10.38;;;4.50;57.10;;;;;;5009505;28;20930;-73
2021/01/04 10:08:46;;;;;;;11.45;9.82;;;4.50;57.20;;;;;;5009584;28;20755;-73
2021/01/04 10:11:19;;;;;;;12.35;9.30;;;4.60;54.80;;;;;;5009623;28;20396;-72
2021/01/04 10:13:44;;;;;;;10.50;9.35;;;4.60;55.50;;;;;;4995787;28;20431;-71
2021/01/04 10:16:15;;;;;;;13.65;10.02;;;4.60;54.50;;;;;;5012557;28;20448;-72
2021/01/04 10:19:05;;;;;;;10.48;9.40;;;4.60;55.40;;;;;;5014221;28;20408;-73
2021/01/04 10:21:42;;;;;;;11.83;9.63;;;4.50;55.00;;;;;;5013608;28;20904;-72
2021/01/04 10:24:17;;;;;;;11.60;9.68;;;4.50;55.60;;;;;;5013940;28;20392;-73
2021/01/04 10:26:45;;;;;;;11.75;9.50;;;4.60;55.40;;;;;;5012975;28;20388;-72
2021/01/04 10:29:15;;;;;;;9.52;8.50;;;4.60;55.70;;;;;;5013744;28;21034;-72
2021/01/04 10:31:41;;;;;;;9.93;8.93;;;4.60;52.90;;;;;;5014647;28;20389;-74
2021/01/04 10:34:09;;;;;;;16.63;9.70;;;4.60;54.20;;;;;;5016196;28;20409;-74
2021/01/04 10:36:36;;;;;;;12.07;9.20;;;4.60;54.20;;;;;;5020429;28;20397;-73
2021/01/04 10:39:15;;;;;;;9.90;8.25;;;4.60;54.10;;;;;;5019563;28;20400;-74
2021/01/04 10:41:40;;;;;;;9.98;8.10;;;4.50;53.90;;;;;;5019586;28;20393;-73
2021/01/04 10:44:10;;;;;;;11.20;9.00;;;4.50;55.50;;;;;;5018546;28;20736;-74
2021/01/04 10:46:42;;;;;;;11.27;9.00;;;4.60;55.10;;;;;;5017814;28;20389;-73
2021/01/04 10:49:26;;;;;;;10.73;8.73;;;4.50;55.20;;;;;;5017835;28;20813;-73
2021/01/04 10:51:54;;;;;;;12.90;9.15;;;4.60;54.90;;;;;;5016554;28;20412;-73
2021/01/04 10:54:33;;;;;;;12.38;8.80;;;4.60;54.20;;;;;;5017792;28;20411;-77
2021/01/04 10:57:04;;;;;;;11.88;9.27;;;4.50;54.90;;;;;;5015396;28;20409;-72
2021/01/04 10:59:35;;;;;;;8.63;7.72;;;4.50;54.60;;;;;;5012568;28;20425;-72
2021/01/04 11:02:00;;;;;;;11.93;8.57;;;4.40;54.60;;;;;;5012589;28;20400;-73
2021/01/04 11:04:26;;;;;;;12.02;8.93;;;4.40;55.80;;;;;;5013207;28;20413;-73
2021/01/04 11:07:07;;;;;;;10.98;8.63;;;4.40;56.00;;;;;;5012877;28;20785;-74
2021/01/04 11:09:38;;;;;;;10.55;8.43;;;4.40;56.50;;;;;;5012773;28;20431;-74
2021/01/04 11:12:26;;;;;;;13.18;10.05;;;4.40;56.40;;;;;;5012737;28;20747;-73
2021/01/04 11:15:04;;;;;;;10.40;8.50;;;4.50;56.90;;;;;;5012113;28;20400;-72
2021/01/04 11:17:36;;;;;;;11.13;8.55;;;4.50;55.40;;;;;;5010491;28;20918;-73
2021/01/04 11:20:11;;;;;;;10.73;8.90;;;4.50;55.40;;;;;;5012109;28;20442;-73
2021/01/04 11:22:37;;;;;;;27.65;17.42;;;4.50;54.30;;;;;;4993038;28;20402;-73
2021/01/04 11:25:04;;;;;;;8.82;7.93;;;4.60;57.60;;;;;;4992632;28;21232;-72
2021/01/04 11:27:29;;;;;;;13.90;10.00;;;4.70;54.40;;;;;;5011864;28;20432;-73
2021/01/04 11:29:55;;;;;;;9.85;8.25;;;4.70;55.10;;;;;;5012495;28;20425;-74
2021/01/04 11:32:24;;;;;;;15.10;10.07;;;4.80;52.40;;;;;;5012598;28;20862;-74
2021/01/04 11:34:53;;;;;;;16.25;10.30;;;4.80;53.00;;;;;;5012264;28;20424;-74
2021/01/04 11:37:21;;;;;;;8.32;7.32;;;4.80;52.60;;;;;;5012182;28;20476;-73
2021/01/04 11:39:47;;;;;;;9.07;6.50;;;4.80;52.70;;;;;;5011890;28;20415;-74
2021/01/04 11:42:13;;;;;;;13.97;9.47;;;4.80;50.70;;;;;;5012049;28;20469;-74
2021/01/04 11:44:38;;;;;;;8.40;6.90;;;4.70;53.90;;;;;;5012052;28;20436;-73
2021/01/04 11:47:05;;;;;;;11.60;8.73;;;4.80;54.40;;;;;;5011526;28;20427;-72
2021/01/04 11:49:31;;;;;;;12.52;7.90;;;4.90;53.70;;;;;;5012119;28;20508;-73
2021/01/04 11:51:57;;;;;;;59.78;35.88;;;4.90;51.40;;;;;;5012510;28;20699;-74
2021/01/04 11:54:23;;;;;;;8.65;7.53;;;5.00;54.40;;;;;;5012044;28;20396;-72
2021/01/04 11:56:49;;;;;;;13.82;8.85;;;5.20;50.90;;;;;;5012209;28;20734;-73
2021/01/04 11:59:16;;;;;;;16.20;7.82;;;5.20;50.30;;;;;;5010847;28;20897;-72
2021/01/04 12:01:42;;;;;;;14.57;9.68;;;5.20;49.60;;;;;;5011453;28;20417;-71
2021/01/04 12:04:08;;;;;;;11.50;8.83;;;5.10;51.80;;;;;;5011617;28;20727;-73
2021/01/04 12:06:35;;;;;;;13.95;8.77;;;5.10;51.30;;;;;;5011438;28;20532;-70
2021/01/04 12:09:00;;;;;;;13.63;9.77;;;5.10;52.10;;;;;;5011681;28;20400;-72
2021/01/04 12:11:38;;;;;;;8.43;6.80;;;5.20;52.00;;;;;;5011564;28;20385;-72
2021/01/04 12:14:05;;;;;;;9.82;7.70;;;5.20;49.80;;;;;;5011744;28;20428;-73
2021/01/04 12:16:32;;;;;;;12.57;9.95;;;5.20;50.20;;;;;;5011091;28;20393;-71
2021/01/04 12:18:58;;;;;;;15.45;11.15;;;5.20;51.20;;;;;;5011750;28;20450;-71
2021/01/04 12:21:24;;;;;;;12.30;9.70;;;5.20;50.60;;;;;;5011588;28;20486;-72
2021/01/04 12:23:50;;;;;;;10.32;7.55;;;5.30;50.40;;;;;;5010264;28;21013;-71
2021/01/04 12:26:17;;;;;;;19.60;13.88;;;5.40;49.60;;;;;;5011502;28;20521;-72
2021/01/04 12:28:43;;;;;;;12.75;8.70;;;5.30;49.80;;;;;;5011051;28;20467;-72
2021/01/04 12:31:09;;;;;;;8.40;6.72;;;5.40;49.10;;;;;;5011659;28;20476;-73
2021/01/04 12:33:34;;;;;;;7.93;6.35;;;5.30;47.00;;;;;;5011580;28;20469;-72
2021/01/04 12:36:00;;;;;;;9.13;6.33;;;5.10;48.90;;;;;;5012008;28;20492;-72
2021/01/04 12:38:26;;;;;;;8.60;7.20;;;5.00;50.50;;;;;;5011804;28;20902;-72
2021/01/04 12:40:52;;;;;;;9.00;6.90;;;4.90;50.60;;;;;;5012202;28;20384;-72
2021/01/04 12:43:17;;;;;;;9.55;7.40;;;4.90;51.50;;;;;;5011690;28;20436;-71
2021/01/04 12:45:43;;;;;;;11.13;7.40;;;4.90;51.90;;;;;;5011608;28;20470;-72
2021/01/04 12:48:08;;;;;;;10.50;7.03;;;5.00;49.60;;;;;;5011571;28;20459;-73
2021/01/04 12:50:34;;;;;;;16.80;8.20;;;5.00;49.60;;;;;;5011555;28;20396;-72
2021/01/04 12:52:59;;;;;;;16.33;7.53;;;5.00;49.50;;;;;;5011318;28;20883;-71
2021/01/04 12:55:25;;;;;;;16.17;7.78;;;5.00;49.00;;;;;;5011801;28;20389;-73
2021/01/04 12:57:51;;;;;;;10.77;7.47;;;5.00;48.90;;;;;;5010479;28;20400;-71
2021/01/04 13:00:23;;;;;;;13.63;8.13;;;4.90;49.70;;;;;;5011097;28;20403;-72
2021/01/04 13:02:52;;;;;;;17.33;8.80;;;5.00;50.90;;;;;;5011120;28;20976;-72
2021/01/04 13:05:18;;;;;;;10.95;8.48;;;5.10;50.70;;;;;;5011237;28;20405;-71
2021/01/04 13:07:44;;;;;;;11.38;8.52;;;5.10;50.60;;;;;;5010641;28;20743;-73
2021/01/04 13:10:10;;;;;;;15.90;8.52;;;5.20;50.10;;;;;;5011135;28;20392;-72
2021/01/04 13:12:37;;;;;;;11.70;8.60;;;5.30;49.20;;;;;;5010821;28;20424;-71
2021/01/04 13:15:04;;;;;;;16.47;8.90;;;5.40;47.00;;;;;;5011039;28;20412;-71
2021/01/04 13:17:30;;;;;;;15.63;8.30;;;5.40;47.20;;;;;;5011159;28;20450;-71
2021/01/04 13:19:55;;;;;;;14.73;9.40;;;5.30;48.60;;;;;;5011093;28;20480;-70
2021/01/04 13:22:21;;;;;;;15.57;9.10;;;5.40;47.40;;;;;;5011083;28;20865;-73
2021/01/04 13:24:47;;;;;;;16.47;10.27;;;5.40;49.30;;;;;;5010456;28;20408;-72
2021/01/04 13:27:12;;;;;;;14.53;9.40;;;5.40;48.40;;;;;;5009753;28;20393;-72
2021/01/04 13:29:38;;;;;;;22.30;10.20;;;5.40;47.60;;;;;;5010046;28;20503;-71
2021/01/04 13:32:09;;;;;;;15.00;9.70;;;5.50;47.20;;;;;;5010088;28;20396;-73
2021/01/04 13:34:35;;;;;;;16.70;10.75;;;5.60;46.40;;;;;;5010236;28;20403;-72